sensor_id;sensor_type;location;lat;lon;timestamp;temperature;humidity
26541;DHT22;14206;50.202;10.948;2024-02-14T00:00:55;3.00;96.60
26541;DHT22;14206;50.202;10.948;2024-02-14T00:03:22;3.10;96.60
26541;DHT22;14206;50.202;10.948;2024-02-14T00:05:50;3.00;96.60
26541;DHT22;14206;50.202;10.948;2024-02-14T00:08:19;3.00;96.60
26541;DHT22;14206;50.202;10.948;2024-02-14T00:10:45;3.00;96.60
26541;DHT22;14206;50.202;10.948;2024-02-14T00:13:13;3.00;96.60
26541;DHT22;14206;50.202;10.948;2024-02-14T00:15:40;2.90;96.60
26541;DHT22;14206;50.202;10.948;2024-02-14T00:18:08;2.90;96.60
26541;DHT22;14206;50.202;10.948;2024-02-14T00:20:35;2.90;96.60
26541;DHT22;14206;50.202;10.948;2024-02-14T00:23:02;2.90;96.60
26541;DHT22;14206;50.202;10.948;2024-02-14T00:25:29;2.90;96.60
26541;DHT22;14206;50.202;10.948;2024-02-14T00:27:57;2.90;96.60
26541;DHT22;14206;50.202;10.948;2024-02-14T00:30:27;2.90;96.60
26541;DHT22;14206;50.202;10.948;2024-02-14T00:32:57;3.00;96.60
26541;DHT22;14206;50.202;10.948;2024-02-14T00:35:24;3.10;96.60
26541;DHT22;14206;50.202;10.948;2024-02-14T00:37:51;3.10;96.60
26541;DHT22;14206;50.202;10.948;2024-02-14T00:40:19;3.10;96.60
26541;DHT22;14206;50.202;10.948;2024-02-14T00:42:45;3.20;96.60
26541;DHT22;14206;50.202;10.948;2024-02-14T00:45:12;3.30;96.60
26541;DHT22;14206;50.202;10.948;2024-02-14T00:47:39;3.30;96.60
26541;DHT22;14206;50.202;10.948;2024-02-14T00:50:07;3.30;96.60
26541;DHT22;14206;50.202;10.948;2024-02-14T00:52:34;3.40;96.60
26541;DHT22;14206;50.202;10.948;2024-02-14T00:55:01;3.40;96.60
26541;DHT22;14206;50.202;10.948;2024-02-14T00:57:30;3.50;96.60
26541;DHT22;14206;50.202;10.948;2024-02-14T00:59:58;3.50;96.60
26541;DHT22;14206;50.202;10.948;2024-02-14T01:02:27;3.60;96.60
26541;DHT22;14206;50.202;10.948;2024-02-14T01:04:54;3.70;96.60
26541;DHT22;14206;50.202;10.948;2024-02-14T01:07:21;3.70;96.60
26541;DHT22;14206;50.202;10.948;2024-02-14T01:09:48;3.80;96.60
26541;DHT22;14206;50.202;10.948;2024-02-14T01:12:20;3.80;96.60
26541;DHT22;14206;50.202;10.948;2024-02-14T01:14:48;3.80;96.60
26541;DHT22;14206;50.202;10.948;2024-02-14T01:17:15;3.90;96.60
26541;DHT22;14206;50.202;10.948;2024-02-14T01:19:42;3.90;96.60
26541;DHT22;14206;50.202;10.948;2024-02-14T01:22:10;3.90;96.60
26541;DHT22;14206;50.202;10.948;2024-02-14T01:24:37;3.90;96.60
26541;DHT22;14206;50.202;10.948;2024-02-14T01:27:04;3.90;96.60
26541;DHT22;14206;50.202;10.948;2024-02-14T01:29:32;3.90;96.60
26541;DHT22;14206;50.202;10.948;2024-02-14T01:31:59;3.90;96.60
26541;DHT22;14206;50.202;10.948;2024-02-14T01:34:26;4.00;96.60
26541;DHT22;14206;50.202;10.948;2024-02-14T01:36:55;4.00;96.60
26541;DHT22;14206;50.202;10.948;2024-02-14T01:39:22;4.00;96.60
26541;DHT22;14206;50.202;10.948;2024-02-14T01:41:49;4.00;96.60
26541;DHT22;14206;50.202;10.948;2024-02-14T01:44:16;4.00;96.60
26541;DHT22;14206;50.202;10.948;2024-02-14T01:46:44;4.00;96.60
26541;DHT22;14206;50.202;10.948;2024-02-14T01:49:11;4.00;96.60
26541;DHT22;14206;50.202;10.948;2024-02-14T01:51:43;3.90;96.60
26541;DHT22;14206;50.202;10.948;2024-02-14T01:54:12;3.90;96.60
26541;DHT22;14206;50.202;10.948;2024-02-14T01:56:40;3.90;96.60
26541;DHT22;14206;50.202;10.948;2024-02-14T01:59:09;3.90;96.60
26541;DHT22;14206;50.202;10.948;2024-02-14T02:01:36;3.90;96.60
26541;DHT22;14206;50.202;10.948;2024-02-14T02:04:05;3.90;96.60
26541;DHT22;14206;50.202;10.948;2024-02-14T02:06:37;4.00;96.60
26541;DHT22;14206;50.202;10.948;2024-02-14T02:09:04;4.00;96.60
26541;DHT22;14206;50.202;10.948;2024-02-14T02:11:51;4.00;96.60
26541;DHT22;14206;50.202;10.948;2024-02-14T02:14:20;4.00;96.60
26541;DHT22;14206;50.202;10.948;2024-02-14T02:16:48;4.00;96.60
26541;DHT22;14206;50.202;10.948;2024-02-14T02:19:15;4.00;96.60
26541;DHT22;14206;50.202;10.948;2024-02-14T02:21:43;4.10;96.60
26541;DHT22;14206;50.202;10.948;2024-02-14T02:24:24;4.10;96.60
26541;DHT22;14206;50.202;10.948;2024-02-14T02:26:51;4.10;96.60
26541;DHT22;14206;50.202;10.948;2024-02-14T02:29:18;4.10;96.60
26541;DHT22;14206;50.202;10.948;2024-02-14T02:31:46;4.20;96.60
26541;DHT22;14206;50.202;10.948;2024-02-14T02:34:14;4.20;96.60
26541;DHT22;14206;50.202;10.948;2024-02-14T02:36:43;4.20;96.60
26541;DHT22;14206;50.202;10.948;2024-02-14T02:39:12;4.20;96.60
26541;DHT22;14206;50.202;10.948;2024-02-14T02:41:40;4.20;96.60
26541;DHT22;14206;50.202;10.948;2024-02-14T02:44:07;4.30;96.60
26541;DHT22;14206;50.202;10.948;2024-02-14T02:46:34;4.30;96.60
26541;DHT22;14206;50.202;10.948;2024-02-14T02:49:01;4.40;96.60
26541;DHT22;14206;50.202;10.948;2024-02-14T02:51:29;4.40;96.60
26541;DHT22;14206;50.202;10.948;2024-02-14T02:53:56;4.40;96.60
26541;DHT22;14206;50.202;10.948;2024-02-14T02:56:24;4.40;96.60
26541;DHT22;14206;50.202;10.948;2024-02-14T02:58:55;4.40;96.60
26541;DHT22;14206;50.202;10.948;2024-02-14T03:01:22;4.40;96.60
26541;DHT22;14206;50.202;10.948;2024-02-14T03:03:51;4.40;96.60
26541;DHT22;14206;50.202;10.948;2024-02-14T03:06:18;4.40;96.60
26541;DHT22;14206;50.202;10.948;2024-02-14T03:08:47;4.40;96.60
26541;DHT22;14206;50.202;10.948;2024-02-14T03:11:15;4.40;96.60
26541;DHT22;14206;50.202;10.948;2024-02-14T03:13:42;4.40;96.60
26541;DHT22;14206;50.202;10.948;2024-02-14T03:16:10;4.40;96.60
26541;DHT22;14206;50.202;10.948;2024-02-14T03:18:37;4.40;96.60
26541;DHT22;14206;50.202;10.948;2024-02-14T03:21:05;4.50;96.60
26541;DHT22;14206;50.202;10.948;2024-02-14T03:23:33;4.60;96.60
26541;DHT22;14206;50.202;10.948;2024-02-14T03:26:00;4.70;96.60
26541;DHT22;14206;50.202;10.948;2024-02-14T03:28:27;4.70;96.60
26541;DHT22;14206;50.202;10.948;2024-02-14T03:30:54;4.70;96.60
26541;DHT22;14206;50.202;10.948;2024-02-14T03:33:20;4.70;96.60
26541;DHT22;14206;50.202;10.948;2024-02-14T03:35:56;4.70;96.60
26541;DHT22;14206;50.202;10.948;2024-02-14T03:38:29;4.70;96.60
26541;DHT22;14206;50.202;10.948;2024-02-14T03:40:58;4.70;96.60
26541;DHT22;14206;50.202;10.948;2024-02-14T03:43:24;4.70;96.60
26541;DHT22;14206;50.202;10.948;2024-02-14T03:45:51;4.60;96.60
26541;DHT22;14206;50.202;10.948;2024-02-14T03:48:18;4.60;96.60
26541;DHT22;14206;50.202;10.948;2024-02-14T03:50:45;4.60;96.60
26541;DHT22;14206;50.202;10.948;2024-02-14T03:53:12;4.60;96.60
26541;DHT22;14206;50.202;10.948;2024-02-14T03:55:41;4.60;96.60
26541;DHT22;14206;50.202;10.948;2024-02-14T03:58:08;4.60;96.60
26541;DHT22;14206;50.202;10.948;2024-02-14T04:00:35;4.60;96.60
26541;DHT22;14206;50.202;10.948;2024-02-14T04:03:02;4.70;96.60
26541;DHT22;14206;50.202;10.948;2024-02-14T04:05:29;4.70;96.60
26541;DHT22;14206;50.202;10.948;2024-02-14T04:07:56;4.70;96.60
26541;DHT22;14206;50.202;10.948;2024-02-14T04:10:23;4.70;96.60
26541;DHT22;14206;50.202;10.948;2024-02-14T04:12:50;4.70;96.60
26541;DHT22;14206;50.202;10.948;2024-02-14T04:15:17;4.80;96.60
26541;DHT22;14206;50.202;10.948;2024-02-14T04:17:44;4.80;96.60
26541;DHT22;14206;50.202;10.948;2024-02-14T04:20:11;4.80;96.60
26541;DHT22;14206;50.202;10.948;2024-02-14T04:22:38;4.80;96.60
26541;DHT22;14206;50.202;10.948;2024-02-14T04:25:07;4.80;96.60
26541;DHT22;14206;50.202;10.948;2024-02-14T04:27:34;4.80;96.60
26541;DHT22;14206;50.202;10.948;2024-02-14T04:30:02;4.80;96.60
26541;DHT22;14206;50.202;10.948;2024-02-14T04:32:29;4.90;96.60
26541;DHT22;14206;50.202;10.948;2024-02-14T04:34:56;4.90;96.60
26541;DHT22;14206;50.202;10.948;2024-02-14T04:37:23;4.90;96.60
26541;DHT22;14206;50.202;10.948;2024-02-14T04:39:50;4.90;96.60
26541;DHT22;14206;50.202;10.948;2024-02-14T04:42:17;4.90;96.60
26541;DHT22;14206;50.202;10.948;2024-02-14T04:44:44;4.90;96.60
26541;DHT22;14206;50.202;10.948;2024-02-14T04:47:12;5.00;96.60
26541;DHT22;14206;50.202;10.948;2024-02-14T04:49:39;5.00;96.60
26541;DHT22;14206;50.202;10.948;2024-02-14T04:52:06;5.00;96.60
26541;DHT22;14206;50.202;10.948;2024-02-14T04:54:34;5.10;96.60
26541;DHT22;14206;50.202;10.948;2024-02-14T04:57:00;5.10;96.60
26541;DHT22;14206;50.202;10.948;2024-02-14T04:59:29;5.10;96.60
26541;DHT22;14206;50.202;10.948;2024-02-14T05:01:56;5.10;96.60
26541;DHT22;14206;50.202;10.948;2024-02-14T05:04:23;5.10;96.60
26541;DHT22;14206;50.202;10.948;2024-02-14T05:06:51;5.10;96.60
26541;DHT22;14206;50.202;10.948;2024-02-14T05:09:23;5.10;96.60
26541;DHT22;14206;50.202;10.948;2024-02-14T05:11:49;5.10;96.60
26541;DHT22;14206;50.202;10.948;2024-02-14T05:14:17;5.20;96.60
26541;DHT22;14206;50.202;10.948;2024-02-14T05:16:44;5.20;96.60
26541;DHT22;14206;50.202;10.948;2024-02-14T05:19:11;5.20;96.60
26541;DHT22;14206;50.202;10.948;2024-02-14T05:21:39;5.20;96.60
26541;DHT22;14206;50.202;10.948;2024-02-14T05:24:05;5.20;96.60
26541;DHT22;14206;50.202;10.948;2024-02-14T05:26:34;5.20;96.60
26541;DHT22;14206;50.202;10.948;2024-02-14T05:29:00;5.20;96.60
26541;DHT22;14206;50.202;10.948;2024-02-14T05:31:43;5.20;96.60
26541;DHT22;14206;50.202;10.948;2024-02-14T05:34:10;5.30;96.60
26541;DHT22;14206;50.202;10.948;2024-02-14T05:36:39;5.30;96.60
26541;DHT22;14206;50.202;10.948;2024-02-14T05:39:06;5.20;96.60
26541;DHT22;14206;50.202;10.948;2024-02-14T05:41:32;5.20;96.60
26541;DHT22;14206;50.202;10.948;2024-02-14T05:44:00;5.20;96.60
26541;DHT22;14206;50.202;10.948;2024-02-14T05:46:27;5.20;96.60
26541;DHT22;14206;50.202;10.948;2024-02-14T05:48:54;5.20;96.60
26541;DHT22;14206;50.202;10.948;2024-02-14T05:51:22;5.30;96.60
26541;DHT22;14206;50.202;10.948;2024-02-14T05:53:49;5.30;96.60
26541;DHT22;14206;50.202;10.948;2024-02-14T05:56:16;5.30;96.60
26541;DHT22;14206;50.202;10.948;2024-02-14T05:58:42;5.30;96.60
26541;DHT22;14206;50.202;10.948;2024-02-14T06:01:09;5.30;96.60
26541;DHT22;14206;50.202;10.948;2024-02-14T06:03:36;5.30;96.60
26541;DHT22;14206;50.202;10.948;2024-02-14T06:06:03;5.30;96.60
26541;DHT22;14206;50.202;10.948;2024-02-14T06:08:30;5.30;96.60
26541;DHT22;14206;50.202;10.948;2024-02-14T06:10:57;5.30;96.60
26541;DHT22;14206;50.202;10.948;2024-02-14T06:13:24;5.40;96.60
26541;DHT22;14206;50.202;10.948;2024-02-14T06:15:51;5.40;96.60
26541;DHT22;14206;50.202;10.948;2024-02-14T06:18:17;5.30;96.60
26541;DHT22;14206;50.202;10.948;2024-02-14T06:20:44;5.30;96.60
26541;DHT22;14206;50.202;10.948;2024-02-14T06:23:12;5.30;96.60
26541;DHT22;14206;50.202;10.948;2024-02-14T06:25:39;5.30;96.60
26541;DHT22;14206;50.202;10.948;2024-02-14T06:28:06;5.30;96.60
26541;DHT22;14206;50.202;10.948;2024-02-14T06:30:33;5.30;96.60
26541;DHT22;14206;50.202;10.948;2024-02-14T06:33:00;5.30;96.60
26541;DHT22;14206;50.202;10.948;2024-02-14T06:35:29;5.30;96.60
26541;DHT22;14206;50.202;10.948;2024-02-14T06:37:57;5.30;96.60
26541;DHT22;14206;50.202;10.948;2024-02-14T06:40:30;5.30;96.60
26541;DHT22;14206;50.202;10.948;2024-02-14T06:42:58;5.30;96.60
26541;DHT22;14206;50.202;10.948;2024-02-14T06:45:27;5.30;96.60
26541;DHT22;14206;50.202;10.948;2024-02-14T06:47:55;5.40;96.60
26541;DHT22;14206;50.202;10.948;2024-02-14T06:50:22;5.40;96.60
26541;DHT22;14206;50.202;10.948;2024-02-14T06:52:49;5.40;96.60
26541;DHT22;14206;50.202;10.948;2024-02-14T06:55:15;5.40;96.60
26541;DHT22;14206;50.202;10.948;2024-02-14T06:57:42;5.50;96.60
26541;DHT22;14206;50.202;10.948;2024-02-14T07:00:10;5.50;96.60
26541;DHT22;14206;50.202;10.948;2024-02-14T07:02:37;5.50;96.60
26541;DHT22;14206;50.202;10.948;2024-02-14T07:05:04;5.50;96.60
26541;DHT22;14206;50.202;10.948;2024-02-14T07:07:33;5.50;96.60
26541;DHT22;14206;50.202;10.948;2024-02-14T07:10:00;5.50;96.60
26541;DHT22;14206;50.202;10.948;2024-02-14T07:12:28;5.50;96.60
26541;DHT22;14206;50.202;10.948;2024-02-14T07:14:56;5.50;96.60
26541;DHT22;14206;50.202;10.948;2024-02-14T07:17:24;5.50;96.60
26541;DHT22;14206;50.202;10.948;2024-02-14T07:19:51;5.60;96.60
26541;DHT22;14206;50.202;10.948;2024-02-14T07:22:18;5.60;96.60
26541;DHT22;14206;50.202;10.948;2024-02-14T07:24:47;5.60;96.60
26541;DHT22;14206;50.202;10.948;2024-02-14T07:27:15;5.70;96.60
26541;DHT22;14206;50.202;10.948;2024-02-14T07:29:43;5.70;96.60
26541;DHT22;14206;50.202;10.948;2024-02-14T07:32:11;5.70;96.60
26541;DHT22;14206;50.202;10.948;2024-02-14T07:34:39;5.80;96.60
26541;DHT22;14206;50.202;10.948;2024-02-14T07:37:07;5.90;96.60
26541;DHT22;14206;50.202;10.948;2024-02-14T07:39:34;5.90;96.60
26541;DHT22;14206;50.202;10.948;2024-02-14T07:42:04;5.90;96.60
26541;DHT22;14206;50.202;10.948;2024-02-14T07:44:31;5.90;96.60
26541;DHT22;14206;50.202;10.948;2024-02-14T07:46:59;5.80;96.60
26541;DHT22;14206;50.202;10.948;2024-02-14T07:49:30;5.90;96.60
26541;DHT22;14206;50.202;10.948;2024-02-14T07:51:57;5.90;96.60
26541;DHT22;14206;50.202;10.948;2024-02-14T07:54:24;5.90;96.60
26541;DHT22;14206;50.202;10.948;2024-02-14T07:56:51;6.00;96.60
26541;DHT22;14206;50.202;10.948;2024-02-14T07:59:18;6.00;96.60
26541;DHT22;14206;50.202;10.948;2024-02-14T08:01:45;6.10;96.60
26541;DHT22;14206;50.202;10.948;2024-02-14T08:04:12;6.10;96.60
26541;DHT22;14206;50.202;10.948;2024-02-14T08:06:39;6.20;96.60
26541;DHT22;14206;50.202;10.948;2024-02-14T08:09:05;6.20;96.60
26541;DHT22;14206;50.202;10.948;2024-02-14T08:11:36;6.30;96.60
26541;DHT22;14206;50.202;10.948;2024-02-14T08:14:03;6.30;96.60
26541;DHT22;14206;50.202;10.948;2024-02-14T08:16:30;6.40;96.60
26541;DHT22;14206;50.202;10.948;2024-02-14T08:18:58;6.40;96.60
26541;DHT22;14206;50.202;10.948;2024-02-14T08:21:28;6.40;96.60
26541;DHT22;14206;50.202;10.948;2024-02-14T08:23:58;6.50;96.60
26541;DHT22;14206;50.202;10.948;2024-02-14T08:26:27;6.50;96.60
26541;DHT22;14206;50.202;10.948;2024-02-14T08:28:55;6.50;96.60
26541;DHT22;14206;50.202;10.948;2024-02-14T08:31:22;6.40;96.60
26541;DHT22;14206;50.202;10.948;2024-02-14T08:33:49;6.40;96.60
26541;DHT22;14206;50.202;10.948;2024-02-14T08:36:17;6.30;96.60
26541;DHT22;14206;50.202;10.948;2024-02-14T08:38:46;6.30;96.60
26541;DHT22;14206;50.202;10.948;2024-02-14T08:41:13;6.30;96.60
26541;DHT22;14206;50.202;10.948;2024-02-14T08:43:40;6.30;96.60
26541;DHT22;14206;50.202;10.948;2024-02-14T08:46:11;6.40;96.60
26541;DHT22;14206;50.202;10.948;2024-02-14T08:48:38;6.40;96.60
26541;DHT22;14206;50.202;10.948;2024-02-14T08:51:12;6.40;96.60
26541;DHT22;14206;50.202;10.948;2024-02-14T08:53:40;6.50;96.60
26541;DHT22;14206;50.202;10.948;2024-02-14T08:56:10;6.50;96.60
26541;DHT22;14206;50.202;10.948;2024-02-14T08:58:38;6.60;96.60
26541;DHT22;14206;50.202;10.948;2024-02-14T09:01:05;6.60;96.60
26541;DHT22;14206;50.202;10.948;2024-02-14T09:03:41;6.60;96.60
26541;DHT22;14206;50.202;10.948;2024-02-14T09:06:10;6.50;96.60
26541;DHT22;14206;50.202;10.948;2024-02-14T09:08:37;6.60;96.60
26541;DHT22;14206;50.202;10.948;2024-02-14T09:11:04;6.60;96.60
26541;DHT22;14206;50.202;10.948;2024-02-14T09:13:31;6.60;96.60
26541;DHT22;14206;50.202;10.948;2024-02-14T09:15:58;6.70;96.60
26541;DHT22;14206;50.202;10.948;2024-02-14T09:18:26;6.70;96.60
26541;DHT22;14206;50.202;10.948;2024-02-14T09:20:53;6.70;96.60
26541;DHT22;14206;50.202;10.948;2024-02-14T09:23:21;6.80;96.60
26541;DHT22;14206;50.202;10.948;2024-02-14T09:25:49;6.80;96.60
26541;DHT22;14206;50.202;10.948;2024-02-14T09:28:16;6.90;96.60
26541;DHT22;14206;50.202;10.948;2024-02-14T09:30:43;6.90;96.60
26541;DHT22;14206;50.202;10.948;2024-02-14T09:33:10;7.00;96.60
26541;DHT22;14206;50.202;10.948;2024-02-14T09:35:38;7.10;96.60
26541;DHT22;14206;50.202;10.948;2024-02-14T09:38:11;7.20;96.60
26541;DHT22;14206;50.202;10.948;2024-02-14T09:40:42;7.40;96.60
26541;DHT22;14206;50.202;10.948;2024-02-14T09:43:31;7.50;96.60
26541;DHT22;14206;50.202;10.948;2024-02-14T09:46:02;7.60;96.60
26541;DHT22;14206;50.202;10.948;2024-02-14T09:48:30;7.50;96.60
26541;DHT22;14206;50.202;10.948;2024-02-14T09:50:58;7.50;96.60
26541;DHT22;14206;50.202;10.948;2024-02-14T09:53:26;7.50;96.60
26541;DHT22;14206;50.202;10.948;2024-02-14T09:55:55;7.50;96.60
26541;DHT22;14206;50.202;10.948;2024-02-14T09:58:23;7.60;96.60
26541;DHT22;14206;50.202;10.948;2024-02-14T10:00:51;7.70;96.60
26541;DHT22;14206;50.202;10.948;2024-02-14T10:03:18;7.70;96.60
26541;DHT22;14206;50.202;10.948;2024-02-14T10:05:45;7.80;96.60
26541;DHT22;14206;50.202;10.948;2024-02-14T10:08:12;7.90;96.60
26541;DHT22;14206;50.202;10.948;2024-02-14T10:10:40;7.90;96.60
26541;DHT22;14206;50.202;10.948;2024-02-14T10:13:07;7.90;96.60
26541;DHT22;14206;50.202;10.948;2024-02-14T10:15:34;8.00;96.60
26541;DHT22;14206;50.202;10.948;2024-02-14T10:18:02;8.10;96.60
26541;DHT22;14206;50.202;10.948;2024-02-14T10:20:30;8.20;96.60
26541;DHT22;14206;50.202;10.948;2024-02-14T10:23:03;8.20;96.60
26541;DHT22;14206;50.202;10.948;2024-02-14T10:25:30;8.40;96.60
26541;DHT22;14206;50.202;10.948;2024-02-14T10:28:04;8.50;96.60
26541;DHT22;14206;50.202;10.948;2024-02-14T10:30:36;8.60;96.60
26541;DHT22;14206;50.202;10.948;2024-02-14T10:33:05;8.70;96.60
26541;DHT22;14206;50.202;10.948;2024-02-14T10:35:50;8.70;96.60
26541;DHT22;14206;50.202;10.948;2024-02-14T10:38:19;8.70;96.60
26541;DHT22;14206;50.202;10.948;2024-02-14T10:40:47;8.70;96.60
26541;DHT22;14206;50.202;10.948;2024-02-14T10:43:15;8.70;96.60
26541;DHT22;14206;50.202;10.948;2024-02-14T10:45:42;8.70;96.60
26541;DHT22;14206;50.202;10.948;2024-02-14T10:48:12;8.60;96.60
26541;DHT22;14206;50.202;10.948;2024-02-14T10:50:41;8.60;96.60
26541;DHT22;14206;50.202;10.948;2024-02-14T10:53:13;8.60;96.60
26541;DHT22;14206;50.202;10.948;2024-02-14T10:55:41;8.60;96.60
26541;DHT22;14206;50.202;10.948;2024-02-14T10:58:10;8.60;96.60
26541;DHT22;14206;50.202;10.948;2024-02-14T11:00:38;8.70;96.60
26541;DHT22;14206;50.202;10.948;2024-02-14T11:03:05;8.70;96.60
26541;DHT22;14206;50.202;10.948;2024-02-14T11:05:46;8.70;96.60
26541;DHT22;14206;50.202;10.948;2024-02-14T11:08:14;8.80;96.60
26541;DHT22;14206;50.202;10.948;2024-02-14T11:10:42;8.90;96.60
26541;DHT22;14206;50.202;10.948;2024-02-14T11:13:12;9.00;96.60
26541;DHT22;14206;50.202;10.948;2024-02-14T11:15:44;9.00;96.60
26541;DHT22;14206;50.202;10.948;2024-02-14T11:18:12;9.00;96.60
26541;DHT22;14206;50.202;10.948;2024-02-14T11:20:39;9.10;96.60
26541;DHT22;14206;50.202;10.948;2024-02-14T11:23:07;9.20;96.60
26541;DHT22;14206;50.202;10.948;2024-02-14T11:25:38;9.30;96.60
26541;DHT22;14206;50.202;10.948;2024-02-14T11:28:14;9.30;96.60
26541;DHT22;14206;50.202;10.948;2024-02-14T11:30:43;9.50;96.60
26541;DHT22;14206;50.202;10.948;2024-02-14T11:33:21;9.60;96.60
26541;DHT22;14206;50.202;10.948;2024-02-14T11:35:53;9.70;96.60
26541;DHT22;14206;50.202;10.948;2024-02-14T11:38:22;9.80;96.60
26541;DHT22;14206;50.202;10.948;2024-02-14T11:40:50;9.80;96.60
26541;DHT22;14206;50.202;10.948;2024-02-14T11:43:20;9.90;96.60
26541;DHT22;14206;50.202;10.948;2024-02-14T11:45:47;10.00;96.60
26541;DHT22;14206;50.202;10.948;2024-02-14T11:48:17;10.00;96.60
26541;DHT22;14206;50.202;10.948;2024-02-14T11:50:45;10.00;96.60
26541;DHT22;14206;50.202;10.948;2024-02-14T11:53:14;10.00;96.60
26541;DHT22;14206;50.202;10.948;2024-02-14T11:55:43;10.00;96.60
26541;DHT22;14206;50.202;10.948;2024-02-14T11:58:11;10.10;96.60
26541;DHT22;14206;50.202;10.948;2024-02-14T12:00:42;10.10;96.60
26541;DHT22;14206;50.202;10.948;2024-02-14T12:03:16;10.20;96.60
26541;DHT22;14206;50.202;10.948;2024-02-14T12:05:45;10.30;96.60
26541;DHT22;14206;50.202;10.948;2024-02-14T12:08:15;10.30;96.60
26541;DHT22;14206;50.202;10.948;2024-02-14T12:10:42;10.30;96.60
26541;DHT22;14206;50.202;10.948;2024-02-14T12:13:14;10.40;96.60
26541;DHT22;14206;50.202;10.948;2024-02-14T12:15:45;10.40;96.60
26541;DHT22;14206;50.202;10.948;2024-02-14T12:18:13;10.50;96.60
26541;DHT22;14206;50.202;10.948;2024-02-14T12:20:42;10.50;96.60
26541;DHT22;14206;50.202;10.948;2024-02-14T12:23:15;10.60;96.60
26541;DHT22;14206;50.202;10.948;2024-02-14T12:25:45;10.70;96.60
26541;DHT22;14206;50.202;10.948;2024-02-14T12:28:17;10.80;96.60
26541;DHT22;14206;50.202;10.948;2024-02-14T12:30:48;10.80;96.60
26541;DHT22;14206;50.202;10.948;2024-02-14T12:33:16;10.80;96.60
26541;DHT22;14206;50.202;10.948;2024-02-14T12:35:45;10.70;96.60
26541;DHT22;14206;50.202;10.948;2024-02-14T12:38:17;10.60;96.60
26541;DHT22;14206;50.202;10.948;2024-02-14T12:40:44;10.50;96.60
26541;DHT22;14206;50.202;10.948;2024-02-14T12:43:13;10.60;96.60
26541;DHT22;14206;50.202;10.948;2024-02-14T12:45:43;10.70;96.60
26541;DHT22;14206;50.202;10.948;2024-02-14T12:48:12;10.80;96.60
26541;DHT22;14206;50.202;10.948;2024-02-14T12:50:41;11.00;96.60
26541;DHT22;14206;50.202;10.948;2024-02-14T12:53:14;11.10;96.60
26541;DHT22;14206;50.202;10.948;2024-02-14T12:55:41;11.10;96.50
26541;DHT22;14206;50.202;10.948;2024-02-14T12:58:08;11.20;96.10
26541;DHT22;14206;50.202;10.948;2024-02-14T13:00:36;11.10;95.80
26541;DHT22;14206;50.202;10.948;2024-02-14T13:03:04;11.10;96.10
26541;DHT22;14206;50.202;10.948;2024-02-14T13:05:32;11.10;96.30
26541;DHT22;14206;50.202;10.948;2024-02-14T13:07:58;11.10;96.30
26541;DHT22;14206;50.202;10.948;2024-02-14T13:10:25;11.10;96.10
26541;DHT22;14206;50.202;10.948;2024-02-14T13:12:53;11.10;96.00
26541;DHT22;14206;50.202;10.948;2024-02-14T13:15:23;11.20;96.20
26541;DHT22;14206;50.202;10.948;2024-02-14T13:17:50;11.30;96.20
26541;DHT22;14206;50.202;10.948;2024-02-14T13:20:17;11.60;95.80
26541;DHT22;14206;50.202;10.948;2024-02-14T13:22:44;11.80;95.40
26541;DHT22;14206;50.202;10.948;2024-02-14T13:25:13;11.90;94.60
26541;DHT22;14206;50.202;10.948;2024-02-14T13:27:43;12.00;94.50
26541;DHT22;14206;50.202;10.948;2024-02-14T13:30:11;12.10;94.60
26541;DHT22;14206;50.202;10.948;2024-02-14T13:32:38;12.20;94.00
26541;DHT22;14206;50.202;10.948;2024-02-14T13:35:07;12.20;93.70
26541;DHT22;14206;50.202;10.948;2024-02-14T13:37:34;12.10;93.70
26541;DHT22;14206;50.202;10.948;2024-02-14T13:40:02;12.00;94.40
26541;DHT22;14206;50.202;10.948;2024-02-14T13:42:31;12.00;93.80
26541;DHT22;14206;50.202;10.948;2024-02-14T13:44:58;11.90;94.00
26541;DHT22;14206;50.202;10.948;2024-02-14T13:47:25;11.80;95.20
26541;DHT22;14206;50.202;10.948;2024-02-14T13:49:51;11.70;94.70
26541;DHT22;14206;50.202;10.948;2024-02-14T13:52:18;11.60;94.90
26541;DHT22;14206;50.202;10.948;2024-02-14T13:54:46;11.50;95.10
26541;DHT22;14206;50.202;10.948;2024-02-14T13:57:14;11.40;95.80
26541;DHT22;14206;50.202;10.948;2024-02-14T13:59:43;11.30;95.90
26541;DHT22;14206;50.202;10.948;2024-02-14T14:02:10;11.30;96.00
26541;DHT22;14206;50.202;10.948;2024-02-14T14:04:37;11.20;96.60
26541;DHT22;14206;50.202;10.948;2024-02-14T14:07:04;11.20;96.60
26541;DHT22;14206;50.202;10.948;2024-02-14T14:09:32;11.10;96.60
26541;DHT22;14206;50.202;10.948;2024-02-14T14:11:59;11.00;96.60
26541;DHT22;14206;50.202;10.948;2024-02-14T14:14:26;10.90;96.60
26541;DHT22;14206;50.202;10.948;2024-02-14T14:16:53;10.90;96.60
26541;DHT22;14206;50.202;10.948;2024-02-14T14:19:21;10.90;96.60
26541;DHT22;14206;50.202;10.948;2024-02-14T14:21:48;10.80;96.60
26541;DHT22;14206;50.202;10.948;2024-02-14T14:24:15;10.80;96.60
26541;DHT22;14206;50.202;10.948;2024-02-14T14:26:42;10.70;96.60
26541;DHT22;14206;50.202;10.948;2024-02-14T14:29:09;10.70;96.60
26541;DHT22;14206;50.202;10.948;2024-02-14T14:31:37;10.70;96.60
26541;DHT22;14206;50.202;10.948;2024-02-14T14:34:04;10.70;96.60
26541;DHT22;14206;50.202;10.948;2024-02-14T14:36:33;10.70;96.60
26541;DHT22;14206;50.202;10.948;2024-02-14T14:39:00;10.70;96.60
26541;DHT22;14206;50.202;10.948;2024-02-14T14:41:27;10.70;96.60
26541;DHT22;14206;50.202;10.948;2024-02-14T14:43:55;10.70;96.60
26541;DHT22;14206;50.202;10.948;2024-02-14T14:46:22;10.60;96.60
26541;DHT22;14206;50.202;10.948;2024-02-14T14:48:49;10.60;96.60
26541;DHT22;14206;50.202;10.948;2024-02-14T14:51:16;10.60;96.60
26541;DHT22;14206;50.202;10.948;2024-02-14T14:53:43;10.50;96.60
26541;DHT22;14206;50.202;10.948;2024-02-14T14:56:10;10.50;96.60
26541;DHT22;14206;50.202;10.948;2024-02-14T14:58:37;10.50;96.60
26541;DHT22;14206;50.202;10.948;2024-02-14T15:01:04;10.40;96.60
26541;DHT22;14206;50.202;10.948;2024-02-14T15:03:31;10.40;96.60
26541;DHT22;14206;50.202;10.948;2024-02-14T15:05:59;10.40;96.60
26541;DHT22;14206;50.202;10.948;2024-02-14T15:08:26;10.40;96.60
26541;DHT22;14206;50.202;10.948;2024-02-14T15:10:55;10.40;96.60
26541;DHT22;14206;50.202;10.948;2024-02-14T15:13:23;10.40;96.60
26541;DHT22;14206;50.202;10.948;2024-02-14T15:15:51;10.40;96.60
26541;DHT22;14206;50.202;10.948;2024-02-14T15:18:19;10.40;96.60
26541;DHT22;14206;50.202;10.948;2024-02-14T15:20:46;10.40;96.60
26541;DHT22;14206;50.202;10.948;2024-02-14T15:23:13;10.40;96.60
26541;DHT22;14206;50.202;10.948;2024-02-14T15:25:40;10.40;96.60
26541;DHT22;14206;50.202;10.948;2024-02-14T15:28:08;10.40;96.60
26541;DHT22;14206;50.202;10.948;2024-02-14T15:30:40;10.30;96.60
26541;DHT22;14206;50.202;10.948;2024-02-14T15:33:26;10.30;96.60